createdAt,value
2022-12-05T00:00:47.031Z,46.63
2022-12-05T00:05:51.935Z,48.43
2022-12-05T00:10:57.998Z,47.40
2022-12-05T00:16:03.293Z,47.80
2022-12-05T00:21:10.989Z,47.23
2022-12-05T00:26:16.021Z,47.80
2022-12-05T00:31:25.801Z,49.50
2022-12-05T00:36:33.329Z,47.10
2022-12-05T00:41:38.764Z,46.53
2022-12-05T00:46:45.511Z,46.97
2022-12-05T00:51:50.858Z,48.30
2022-12-05T00:56:57.604Z,48.03
2022-12-05T01:02:03.122Z,47.57
2022-12-05T01:07:08.599Z,49.03
2022-12-05T01:12:14.809Z,48.55
2022-12-05T01:17:19.800Z,48.87
2022-12-05T01:22:25.404Z,48.48
2022-12-05T01:27:30.965Z,49.80
2022-12-05T01:32:36.499Z,50.23
2022-12-05T01:37:41.999Z,49.17
2022-12-05T01:42:47.323Z,49.53
2022-12-05T01:47:52.479Z,48.80
2022-12-05T01:52:57.922Z,49.47
2022-12-05T01:58:04.256Z,48.27
2022-12-05T02:03:11.938Z,47.53
2022-12-05T02:08:17.555Z,49.00
2022-12-05T02:13:40.882Z,46.73
2022-12-05T02:18:57.305Z,47.73
2022-12-05T02:24:29.328Z,46.40
2022-12-05T02:30:03.637Z,46.23
2022-12-05T02:35:20.620Z,45.03
2022-12-05T02:40:28.999Z,46.67
2022-12-05T02:45:36.749Z,46.47
2022-12-05T02:50:44.002Z,48.40
2022-12-05T02:55:50.204Z,46.90
2022-12-05T03:00:59.594Z,45.78
2022-12-05T03:06:17.433Z,46.93
2022-12-05T03:11:23.359Z,47.55
2022-12-05T03:16:32.134Z,47.60
2022-12-05T03:21:57.645Z,46.60
2022-12-05T03:27:08.181Z,47.87
2022-12-05T03:32:35.935Z,47.17
2022-12-05T03:37:53.026Z,47.73
2022-12-05T03:43:05.615Z,47.50
2022-12-05T03:48:28.756Z,47.57
2022-12-05T03:53:37.158Z,46.60
2022-12-05T03:58:47.984Z,47.07
2022-12-05T04:03:56.320Z,47.70
2022-12-05T04:09:09.171Z,47.27
2022-12-05T04:14:18.591Z,47.13
2022-12-05T04:20:07.515Z,47.40
2022-12-05T04:25:31.871Z,45.80
2022-12-05T04:30:45.966Z,46.77
2022-12-05T04:36:06.392Z,46.87
2022-12-05T04:41:14.763Z,46.20
2022-12-05T04:46:22.052Z,46.10
2022-12-05T04:51:31.251Z,46.60
2022-12-05T04:56:39.229Z,46.67
2022-12-05T05:01:53.406Z,45.70
2022-12-05T05:06:58.278Z,46.80
2022-12-05T05:12:03.214Z,46.03
2022-12-05T05:17:08.688Z,45.83
2022-12-05T05:22:15.432Z,52.95
2022-12-05T05:27:20.513Z,45.97
2022-12-05T05:32:25.720Z,46.55
2022-12-05T05:37:32.667Z,45.33
2022-12-05T05:42:37.622Z,46.10
2022-12-05T05:47:43.605Z,45.87
2022-12-05T05:52:49.063Z,44.70
2022-12-05T05:57:54.245Z,45.77
2022-12-05T06:02:59.403Z,45.90
2022-12-05T06:08:05.026Z,45.63
2022-12-05T06:13:09.906Z,45.93
2022-12-05T06:18:15.885Z,45.90
2022-12-05T06:23:21.312Z,46.53
2022-12-05T06:28:27.681Z,48.87
2022-12-05T06:33:33.048Z,46.37
2022-12-05T06:38:42.093Z,46.93
2022-12-05T06:43:45.697Z,45.40
2022-12-05T06:48:53.377Z,45.37
2022-12-05T06:53:58.549Z,47.00
2022-12-05T06:59:03.466Z,46.07
2022-12-05T07:04:14.165Z,44.87
2022-12-05T07:09:21.610Z,45.50
2022-12-05T07:19:34.876Z,45.43
2022-12-05T07:24:39.891Z,45.60
2022-12-05T07:29:45.228Z,46.63
2022-12-05T07:34:54.950Z,46.23
2022-12-05T07:39:57.654Z,45.43
2022-12-05T07:45:03.054Z,47.00
2022-12-05T07:50:08.939Z,46.77
2022-12-05T07:55:15.326Z,47.58
2022-12-05T08:00:22.598Z,47.33
2022-12-05T08:05:28.161Z,47.13
2022-12-05T08:10:35.200Z,47.47
2022-12-05T08:15:40.221Z,47.33
2022-12-05T08:20:45.281Z,48.70
2022-12-05T08:25:50.196Z,48.03
2022-12-05T08:30:55.867Z,48.95
2022-12-05T08:36:05.833Z,49.37
2022-12-05T08:41:14.645Z,49.40
2022-12-05T08:46:19.570Z,50.43
2022-12-05T08:51:24.939Z,50.53
2022-12-05T08:56:30.090Z,49.80
2022-12-05T09:01:39.152Z,52.57
2022-12-05T09:06:45.029Z,52.57
2022-12-05T09:11:50.952Z,57.30
2022-12-05T09:16:56.085Z,55.93
2022-12-05T09:22:01.050Z,52.97
2022-12-05T09:27:06.376Z,50.47
2022-12-05T09:32:12.487Z,49.57
2022-12-05T09:37:38.118Z,48.10
2022-12-05T09:42:52.003Z,49.23
2022-12-05T09:48:09.656Z,49.85
2022-12-05T09:53:32.378Z,50.90
2022-12-05T09:58:47.762Z,51.93
2022-12-05T10:04:05.282Z,51.23
2022-12-05T10:09:15.762Z,51.40
2022-12-05T10:14:35.330Z,49.60
2022-12-05T10:19:43.360Z,48.83
2022-12-05T10:24:51.542Z,51.47
2022-12-05T10:30:03.078Z,50.00
2022-12-05T10:35:28.580Z,49.37
2022-12-05T10:40:42.784Z,54.27
2022-12-05T10:45:49.617Z,54.80
2022-12-05T10:50:58.363Z,52.27
2022-12-05T11:01:13.347Z,53.20
2022-12-05T11:06:21.519Z,52.17
2022-12-05T11:11:33.360Z,52.23
2022-12-05T11:16:40.366Z,50.43
2022-12-05T11:21:45.985Z,49.57
2022-12-05T11:26:51.677Z,51.18
2022-12-05T11:31:57.978Z,49.35
2022-12-05T11:37:17.796Z,48.80
2022-12-05T11:42:37.920Z,50.25
2022-12-05T11:48:00.862Z,49.17
2022-12-05T11:53:23.943Z,51.53
2022-12-05T11:58:40.553Z,52.50
2022-12-05T12:03:54.419Z,51.23
2022-12-05T12:09:15.749Z,53.63
2022-12-05T12:14:50.706Z,53.13
2022-12-05T12:20:35.357Z,52.27
2022-12-05T12:25:52.813Z,55.57
2022-12-05T12:31:27.987Z,52.93
2022-12-05T12:36:55.852Z,54.03
2022-12-05T12:42:09.867Z,53.17
2022-12-05T12:47:41.347Z,51.88
2022-12-05T12:52:55.716Z,51.20
2022-12-05T12:58:19.556Z,51.37
2022-12-05T13:03:51.190Z,50.47
2022-12-05T13:08:55.680Z,51.87
2022-12-05T13:14:03.159Z,50.57
2022-12-05T13:19:09.867Z,51.47
2022-12-05T13:24:19.078Z,50.78
2022-12-05T13:29:30.300Z,52.23
2022-12-05T13:34:47.840Z,55.50
2022-12-05T13:45:20.347Z,57.90
2022-12-05T13:50:46.502Z,57.10
2022-12-05T13:56:16.255Z,59.60
2022-12-05T14:01:32.267Z,62.00
2022-12-05T14:06:40.338Z,59.23
2022-12-05T14:12:14.441Z,61.67
2022-12-05T14:17:19.938Z,62.48
2022-12-05T14:22:44.843Z,62.00
2022-12-05T14:27:52.813Z,66.63
2022-12-05T14:33:01.173Z,65.03
2022-12-05T14:38:08.156Z,61.80
2022-12-05T14:43:22.989Z,58.03
2022-12-05T14:48:31.786Z,57.98
2022-12-05T14:53:43.468Z,63.27
2022-12-05T14:59:05.362Z,60.80
2022-12-05T15:04:19.530Z,60.17
2022-12-05T15:09:37.989Z,61.57
2022-12-05T15:15:04.439Z,70.33
2022-12-05T15:20:21.600Z,61.77
2022-12-05T15:25:30.363Z,65.05
2022-12-05T15:30:39.785Z,85.63
2022-12-05T15:35:47.557Z,60.90
2022-12-05T15:40:53.710Z,66.37
2022-12-05T15:46:22.663Z,63.23
2022-12-05T15:51:31.200Z,70.20
2022-12-05T15:56:45.369Z,62.30
2022-12-05T16:01:59.759Z,60.90
2022-12-05T16:07:10.458Z,62.07
2022-12-05T16:12:20.076Z,62.62
2022-12-05T16:17:26.488Z,62.62
2022-12-05T16:22:34.296Z,61.60
2022-12-05T16:27:40.160Z,61.17
2022-12-05T16:32:48.537Z,60.97
2022-12-05T16:37:57.018Z,62.00
2022-12-05T16:43:06.791Z,63.17
2022-12-05T16:48:27.395Z,63.43
2022-12-05T16:53:34.543Z,69.40
2022-12-05T16:58:41.493Z,71.47
2022-12-05T17:03:48.907Z,63.95
2022-12-05T17:08:55.831Z,59.80
2022-12-05T17:14:03.284Z,60.00
2022-12-05T17:24:20.890Z,63.47
2022-12-05T17:29:32.465Z,62.43
2022-12-05T17:34:34.246Z,63.43
2022-12-05T17:39:39.146Z,65.03
2022-12-05T17:44:45.480Z,79.70
2022-12-05T17:49:52.303Z,65.10
2022-12-05T17:54:58.876Z,67.73
2022-12-05T18:00:05.438Z,65.45
2022-12-05T18:05:12.699Z,64.55
2022-12-05T18:10:21.468Z,78.87
2022-12-05T18:15:27.768Z,76.03
2022-12-05T18:20:32.962Z,64.47
2022-12-05T18:25:38.308Z,63.73
2022-12-05T18:30:44.918Z,66.97
2022-12-05T18:35:52.696Z,66.43
2022-12-05T18:41:02.510Z,66.53
2022-12-05T18:46:08.555Z,72.20
2022-12-05T18:51:20.112Z,67.47
2022-12-05T18:56:29.760Z,64.63
2022-12-05T19:01:38.779Z,62.03
2022-12-05T19:06:52.346Z,63.37
2022-12-05T19:12:01.224Z,61.77
2022-12-05T19:17:07.015Z,63.80
2022-12-05T19:22:12.074Z,62.67
2022-12-05T19:27:17.248Z,62.20
2022-12-05T19:32:22.878Z,66.47
2022-12-05T19:37:30.384Z,69.50
2022-12-05T19:42:35.844Z,66.67
2022-12-05T19:47:40.987Z,67.27
2022-12-05T19:52:46.451Z,78.27
2022-12-05T19:57:52.026Z,72.80
2022-12-05T20:02:58.567Z,63.10
2022-12-05T20:08:05.260Z,62.10
2022-12-05T20:13:44.838Z,63.42
2022-12-05T20:18:17.992Z,63.13
2022-12-05T20:23:23.457Z,67.70
2022-12-05T20:28:29.472Z,67.17
2022-12-05T20:33:34.954Z,63.33
2022-12-05T20:38:40.867Z,61.50
2022-12-05T20:43:47.997Z,61.23
2022-12-05T20:48:53.620Z,72.83
2022-12-05T20:54:01.037Z,75.13
2022-12-05T20:59:09.468Z,84.87
2022-12-05T21:04:15.148Z,67.30
2022-12-05T21:09:26.421Z,78.65
2022-12-05T21:14:31.911Z,78.40
2022-12-05T21:19:36.778Z,79.40
2022-12-05T21:24:42.764Z,99.60
2022-12-05T21:29:47.706Z,81.50
2022-12-05T21:34:54.636Z,95.53
2022-12-05T21:40:00.552Z,83.73
2022-12-05T21:45:06.218Z,75.93
2022-12-05T21:50:12.517Z,77.33
2022-12-05T21:55:17.882Z,68.70
2022-12-05T22:00:23.163Z,68.43
2022-12-05T22:05:29.159Z,70.45
2022-12-05T22:10:35.906Z,67.58
2022-12-05T22:15:41.511Z,65.53
2022-12-05T22:20:46.583Z,68.47
2022-12-05T22:26:09.945Z,73.33
2022-12-05T22:31:17.849Z,71.53
2022-12-05T22:36:24.394Z,72.70
2022-12-05T22:41:30.828Z,74.05
2022-12-05T22:46:36.191Z,94.93
2022-12-05T22:51:41.578Z,104.27
2022-12-05T22:56:49.588Z,93.43
2022-12-05T23:01:55.213Z,114.60
2022-12-05T23:07:00.426Z,94.07
2022-12-05T23:12:05.994Z,91.17
2022-12-05T23:17:11.035Z,94.97
2022-12-05T23:22:16.463Z,86.77
2022-12-05T23:27:21.766Z,92.35
2022-12-05T23:32:27.119Z,78.87
2022-12-05T23:37:32.682Z,79.70
2022-12-05T23:42:38.318Z,93.53
2022-12-05T23:47:43.355Z,93.07
2022-12-05T23:52:48.543Z,89.03
2022-12-05T23:57:53.558Z,89.67
